XAASP MZBZ-MMUN
Flight info
| Callsign | XAASP |
|---|---|
| Flight time | 1h 1m |
| Altitude | 35000 |
| Route | LITRA1D LITRA DCT CTM UG765 PAULE PAULE3G |
| Aircraft | CL60/M-SBDE1E2E3FGHIJ1J4J5J7M3RWXYZ/LB1V1D1 |
Departure
| Time | 2026-04-26 18:23 |
|---|---|
| Airport | Philip S. W. Goldson International Airport (MZBZ) |
Arrival
| Time | 2026-04-26 19:24 |
|---|---|
| Airport | Cancún International Airport (MMUN) |
| Time | Latitude | Longitude | Altitude | Speed | Heading |
|---|---|---|---|---|---|
| 2026-04-26 18:01 | 17.53682 | -88.30848 | 23 ft | 0 kts | 166° |
| 2026-04-26 18:19 | 17.53679 | -88.30846 | 23 ft | 1 kts | 142° |
| 2026-04-26 18:19 | 17.53684 | -88.30829 | 23 ft | 4 kts | 11° |
| 2026-04-26 18:19 | 17.53728 | -88.30839 | 23 ft | 7 kts | 345° |
| 2026-04-26 18:19 | 17.53785 | -88.30855 | 23 ft | 10 kts | 345° |
| 2026-04-26 18:20 | 17.53858 | -88.30874 | 23 ft | 10 kts | 344° |
| 2026-04-26 18:20 | 17.53882 | -88.30945 | 23 ft | 13 kts | 258° |
| 2026-04-26 18:20 | 17.53859 | -88.31049 | 23 ft | 16 kts | 256° |
| 2026-04-26 18:20 | 17.53850 | -88.31087 | 23 ft | 16 kts | 256° |
| 2026-04-26 18:21 | 17.53801 | -88.31312 | 23 ft | 20 kts | 257° |
| 2026-04-26 18:21 | 17.53768 | -88.31467 | 23 ft | 22 kts | 257° |
| 2026-04-26 18:21 | 17.53736 | -88.31610 | 23 ft | 18 kts | 257° |
| 2026-04-26 18:21 | 17.53709 | -88.31722 | 23 ft | 10 kts | 250° |
| 2026-04-26 18:22 | 17.53686 | -88.31772 | 23 ft | 8 kts | 240° |
| 2026-04-26 18:22 | 17.53701 | -88.31791 | 23 ft | 7 kts | 70° |
| 2026-04-26 18:22 | 17.53746 | -88.31566 | 23 ft | 77 kts | 77° |
| 2026-04-26 18:22 | 17.53928 | -88.30738 | 45 ft | 147 kts | 79° |
| 2026-04-26 18:23 | 17.54179 | -88.29658 | 592 ft | 161 kts | 78° |
| 2026-04-26 18:23 | 17.54477 | -88.28431 | 1139 ft | 184 kts | 77° |
| 2026-04-26 18:23 | 17.54775 | -88.27097 | 1877 ft | 198 kts | 79° |
| 2026-04-26 18:23 | 17.55137 | -88.25680 | 2699 ft | 211 kts | 68° |
| 2026-04-26 18:24 | 17.56036 | -88.24421 | 3557 ft | 231 kts | 39° |
| 2026-04-26 18:24 | 17.57566 | -88.23840 | 4467 ft | 250 kts | 7° |
| 2026-04-26 18:24 | 17.59347 | -88.23773 | 5395 ft | 265 kts | 3° |
| 2026-04-26 18:24 | 17.61230 | -88.23716 | 6293 ft | 280 kts | 4° |
| 2026-04-26 18:25 | 17.63202 | -88.23651 | 7216 ft | 290 kts | 3° |
| 2026-04-26 18:25 | 17.65218 | -88.23584 | 8327 ft | 295 kts | 3° |
| 2026-04-26 18:25 | 17.67247 | -88.23515 | 9494 ft | 297 kts | 3° |
| 2026-04-26 18:25 | 17.69290 | -88.23445 | 10661 ft | 299 kts | 4° |
| 2026-04-26 18:26 | 17.71360 | -88.23428 | 11882 ft | 298 kts | 357° |
| 2026-04-26 18:26 | 17.73363 | -88.23760 | 13117 ft | 296 kts | 351° |
| 2026-04-26 18:26 | 17.75393 | -88.24155 | 14081 ft | 303 kts | 350° |
| 2026-04-26 18:26 | 17.77532 | -88.24564 | 14599 ft | 324 kts | 350° |
| 2026-04-26 18:27 | 17.79805 | -88.24997 | 15305 ft | 337 kts | 350° |
| 2026-04-26 18:27 | 17.82141 | -88.25442 | 16175 ft | 344 kts | 349° |
| 2026-04-26 18:27 | 17.84507 | -88.25892 | 17064 ft | 349 kts | 349° |
| 2026-04-26 18:27 | 17.86897 | -88.26346 | 17916 ft | 353 kts | 349° |
| 2026-04-26 18:28 | 17.89300 | -88.26801 | 18721 ft | 357 kts | 349° |
| 2026-04-26 18:28 | 17.91763 | -88.27268 | 19472 ft | 363 kts | 349° |
| 2026-04-26 18:28 | 17.94273 | -88.27743 | 20189 ft | 368 kts | 349° |
| 2026-04-26 18:28 | 17.96811 | -88.28223 | 20917 ft | 373 kts | 349° |
| 2026-04-26 18:29 | 17.99382 | -88.28709 | 21639 ft | 377 kts | 349° |
| 2026-04-26 18:29 | 18.01980 | -88.29201 | 22329 ft | 382 kts | 349° |
| 2026-04-26 18:29 | 18.04587 | -88.29694 | 22984 ft | 386 kts | 348° |
| 2026-04-26 18:29 | 18.07229 | -88.30193 | 23649 ft | 390 kts | 348° |
| 2026-04-26 18:30 | 18.09937 | -88.30704 | 24311 ft | 394 kts | 348° |
| 2026-04-26 18:30 | 18.12640 | -88.31215 | 24968 ft | 397 kts | 348° |
| 2026-04-26 18:30 | 18.15367 | -88.31730 | 25625 ft | 400 kts | 348° |
| 2026-04-26 18:30 | 18.18115 | -88.32249 | 26261 ft | 401 kts | 348° |
| 2026-04-26 18:31 | 18.20868 | -88.32737 | 26826 ft | 404 kts | 352° |
| 2026-04-26 18:31 | 18.23665 | -88.32874 | 27324 ft | 408 kts | 357° |
| 2026-04-26 18:31 | 18.26509 | -88.32922 | 27778 ft | 410 kts | 356° |
| 2026-04-26 18:31 | 18.29396 | -88.32976 | 28220 ft | 413 kts | 356° |
| 2026-04-26 18:32 | 18.32253 | -88.33032 | 28650 ft | 415 kts | 356° |
| 2026-04-26 18:32 | 18.35136 | -88.33088 | 29069 ft | 418 kts | 356° |
| 2026-04-26 18:32 | 18.38073 | -88.33146 | 29473 ft | 420 kts | 356° |
| 2026-04-26 18:32 | 18.40984 | -88.33203 | 29857 ft | 422 kts | 356° |
| 2026-04-26 18:33 | 18.43931 | -88.33262 | 30237 ft | 424 kts | 356° |
| 2026-04-26 18:33 | 18.46892 | -88.33319 | 30621 ft | 426 kts | 357° |
| 2026-04-26 18:33 | 18.49841 | -88.33052 | 31092 ft | 429 kts | 8° |
| 2026-04-26 18:33 | 18.52661 | -88.32031 | 31642 ft | 432 kts | 23° |
| 2026-04-26 18:34 | 18.55213 | -88.30373 | 32260 ft | 429 kts | 30° |
| 2026-04-26 18:34 | 18.57671 | -88.28635 | 32875 ft | 422 kts | 29° |
| 2026-04-26 18:34 | 18.60090 | -88.26942 | 33477 ft | 416 kts | 29° |
| 2026-04-26 18:34 | 18.62480 | -88.25269 | 34004 ft | 413 kts | 29° |
| 2026-04-26 18:35 | 18.64858 | -88.23603 | 34465 ft | 412 kts | 29° |
| 2026-04-26 18:35 | 18.67269 | -88.21914 | 34856 ft | 412 kts | 29° |
| 2026-04-26 18:35 | 18.69655 | -88.20243 | 34969 ft | 418 kts | 29° |
| 2026-04-26 18:35 | 18.72122 | -88.18515 | 34996 ft | 427 kts | 29° |
| 2026-04-26 18:36 | 18.77171 | -88.14974 | 35010 ft | 444 kts | 30° |
| 2026-04-26 18:36 | 18.82365 | -88.11327 | 35010 ft | 459 kts | 30° |
| 2026-04-26 18:37 | 18.87741 | -88.07546 | 35007 ft | 469 kts | 30° |
| 2026-04-26 18:37 | 18.93179 | -88.03715 | 35005 ft | 470 kts | 30° |
| 2026-04-26 18:38 | 18.98628 | -87.99872 | 35005 ft | 469 kts | 30° |
| 2026-04-26 18:38 | 19.04046 | -87.96047 | 35006 ft | 470 kts | 30° |
| 2026-04-26 18:39 | 19.09460 | -87.92223 | 35009 ft | 470 kts | 30° |
| 2026-04-26 18:39 | 19.14923 | -87.88361 | 35012 ft | 471 kts | 30° |
| 2026-04-26 18:40 | 19.20368 | -87.84509 | 35016 ft | 471 kts | 30° |
| 2026-04-26 18:40 | 19.25861 | -87.80619 | 35016 ft | 471 kts | 30° |
| 2026-04-26 18:41 | 19.31308 | -87.76759 | 35016 ft | 471 kts | 30° |
| 2026-04-26 18:41 | 19.34050 | -87.74816 | 34768 ft | 475 kts | 30° |
| 2026-04-26 18:41 | 19.36783 | -87.72878 | 34208 ft | 477 kts | 30° |
| 2026-04-26 18:42 | 19.39534 | -87.70926 | 33611 ft | 474 kts | 30° |
| 2026-04-26 18:42 | 19.42253 | -87.68996 | 33008 ft | 472 kts | 30° |
| 2026-04-26 18:42 | 19.45006 | -87.67040 | 32380 ft | 471 kts | 30° |
| 2026-04-26 18:42 | 19.47699 | -87.65127 | 31763 ft | 471 kts | 30° |
| 2026-04-26 18:43 | 19.50440 | -87.63179 | 31133 ft | 471 kts | 30° |
| 2026-04-26 18:43 | 19.53152 | -87.61251 | 30508 ft | 470 kts | 31° |
| 2026-04-26 18:43 | 19.55875 | -87.59314 | 29881 ft | 467 kts | 31° |
| 2026-04-26 18:43 | 19.58543 | -87.57414 | 29263 ft | 462 kts | 31° |
| 2026-04-26 18:44 | 19.61209 | -87.55513 | 28649 ft | 456 kts | 31° |
| 2026-04-26 18:44 | 19.63827 | -87.53644 | 28051 ft | 451 kts | 31° |
| 2026-04-26 18:44 | 19.66416 | -87.51794 | 27456 ft | 444 kts | 31° |
| 2026-04-26 18:44 | 19.68954 | -87.49981 | 26871 ft | 436 kts | 31° |
| 2026-04-26 18:45 | 19.71468 | -87.48184 | 26292 ft | 428 kts | 31° |
| 2026-04-26 18:45 | 19.73914 | -87.46434 | 25727 ft | 420 kts | 31° |
| 2026-04-26 18:45 | 19.76310 | -87.44721 | 25176 ft | 413 kts | 31° |
| 2026-04-26 18:45 | 19.78663 | -87.43040 | 24634 ft | 406 kts | 31° |
| 2026-04-26 18:46 | 19.80976 | -87.41296 | 24086 ft | 403 kts | 37° |
| 2026-04-26 18:46 | 19.82809 | -87.39123 | 23676 ft | 398 kts | 50° |
| 2026-04-26 18:46 | 19.84422 | -87.36768 | 23692 ft | 391 kts | 50° |
| 2026-04-26 18:46 | 19.86074 | -87.34390 | 23523 ft | 400 kts | 50° |
| 2026-04-26 18:47 | 19.87727 | -87.32007 | 23383 ft | 403 kts | 50° |
| 2026-04-26 18:47 | 19.89395 | -87.29600 | 23204 ft | 402 kts | 50° |
| 2026-04-26 18:47 | 19.91027 | -87.27241 | 23048 ft | 400 kts | 50° |
| 2026-04-26 18:47 | 19.92679 | -87.24855 | 22881 ft | 398 kts | 50° |
| 2026-04-26 18:48 | 19.94341 | -87.22450 | 22718 ft | 397 kts | 50° |
| 2026-04-26 18:48 | 19.95966 | -87.20109 | 22557 ft | 396 kts | 49° |
| 2026-04-26 18:48 | 19.97925 | -87.18037 | 22452 ft | 388 kts | 33° |
| 2026-04-26 18:48 | 20.00279 | -87.16715 | 22377 ft | 384 kts | 17° |
| 2026-04-26 18:49 | 20.02886 | -87.16158 | 22301 ft | 378 kts | 1° |
| 2026-04-26 18:49 | 20.05515 | -87.16206 | 22179 ft | 376 kts | 356° |
| 2026-04-26 18:49 | 20.08140 | -87.16335 | 22051 ft | 375 kts | 356° |
| 2026-04-26 18:49 | 20.10728 | -87.16454 | 21928 ft | 375 kts | 356° |
| 2026-04-26 18:50 | 20.13325 | -87.16573 | 21805 ft | 374 kts | 356° |
| 2026-04-26 18:50 | 20.15937 | -87.16692 | 21558 ft | 377 kts | 356° |
| 2026-04-26 18:50 | 20.18559 | -87.16811 | 21056 ft | 375 kts | 356° |
| 2026-04-26 18:50 | 20.21124 | -87.16927 | 20563 ft | 368 kts | 356° |
| 2026-04-26 18:51 | 20.23686 | -87.17042 | 20073 ft | 364 kts | 356° |
| 2026-04-26 18:51 | 20.26179 | -87.17155 | 19597 ft | 361 kts | 356° |
| 2026-04-26 18:51 | 20.28689 | -87.17268 | 19118 ft | 359 kts | 356° |
| 2026-04-26 18:51 | 20.31185 | -87.17380 | 18642 ft | 356 kts | 357° |
| 2026-04-26 18:52 | 20.33645 | -87.17490 | 18189 ft | 353 kts | 357° |
| 2026-04-26 18:52 | 20.36095 | -87.17600 | 17736 ft | 351 kts | 357° |
| 2026-04-26 18:52 | 20.38498 | -87.17708 | 17286 ft | 349 kts | 357° |
| 2026-04-26 18:52 | 20.40918 | -87.17815 | 16830 ft | 346 kts | 357° |
| 2026-04-26 18:53 | 20.43331 | -87.17923 | 16371 ft | 344 kts | 357° |
| 2026-04-26 18:53 | 20.45715 | -87.18030 | 15915 ft | 342 kts | 357° |
| 2026-04-26 18:53 | 20.48097 | -87.18136 | 15460 ft | 340 kts | 357° |
| 2026-04-26 18:53 | 20.50420 | -87.18239 | 15017 ft | 338 kts | 357° |
| 2026-04-26 18:54 | 20.52789 | -87.18345 | 14566 ft | 336 kts | 357° |
| 2026-04-26 18:54 | 20.55104 | -87.18448 | 14125 ft | 334 kts | 357° |
| 2026-04-26 18:54 | 20.57415 | -87.18551 | 13687 ft | 332 kts | 357° |
| 2026-04-26 18:54 | 20.59727 | -87.18653 | 13247 ft | 330 kts | 357° |
| 2026-04-26 18:55 | 20.62031 | -87.18756 | 12808 ft | 328 kts | 357° |
| 2026-04-26 18:55 | 20.64317 | -87.18858 | 12371 ft | 324 kts | 357° |
| 2026-04-26 18:55 | 20.66525 | -87.18955 | 11949 ft | 318 kts | 357° |
| 2026-04-26 18:55 | 20.68730 | -87.19053 | 11528 ft | 310 kts | 357° |
| 2026-04-26 18:56 | 20.70849 | -87.19147 | 11124 ft | 303 kts | 357° |
| 2026-04-26 18:56 | 20.72942 | -87.19240 | 10725 ft | 297 kts | 357° |
| 2026-04-26 18:56 | 20.74981 | -87.19331 | 10337 ft | 291 kts | 357° |
| 2026-04-26 18:56 | 20.76990 | -87.19419 | 9955 ft | 288 kts | 357° |
| 2026-04-26 18:57 | 20.78997 | -87.19508 | 9576 ft | 289 kts | 358° |
| 2026-04-26 18:57 | 20.80340 | -87.19568 | 9324 ft | 290 kts | 358° |
| 2026-04-26 18:57 | 20.83028 | -87.19687 | 8821 ft | 289 kts | 358° |
| 2026-04-26 18:57 | 20.85041 | -87.19776 | 8447 ft | 288 kts | 358° |
| 2026-04-26 18:58 | 20.87013 | -87.19864 | 8097 ft | 287 kts | 358° |
| 2026-04-26 18:58 | 20.89025 | -87.19953 | 7716 ft | 287 kts | 358° |
| 2026-04-26 18:58 | 20.91018 | -87.20042 | 7341 ft | 287 kts | 358° |
| 2026-04-26 18:58 | 20.93012 | -87.20130 | 6960 ft | 286 kts | 358° |
| 2026-04-26 18:59 | 20.94987 | -87.20218 | 6585 ft | 285 kts | 358° |
| 2026-04-26 18:59 | 20.96968 | -87.20306 | 6207 ft | 283 kts | 358° |
| 2026-04-26 18:59 | 20.98934 | -87.20393 | 5835 ft | 281 kts | 358° |
| 2026-04-26 18:59 | 21.00841 | -87.20478 | 5453 ft | 268 kts | 359° |
| 2026-04-26 19:00 | 21.02563 | -87.20272 | 5542 ft | 237 kts | 19° |
| 2026-04-26 19:00 | 21.03976 | -87.19438 | 5409 ft | 230 kts | 39° |
| 2026-04-26 19:00 | 21.05154 | -87.18282 | 4926 ft | 230 kts | 45° |
| 2026-04-26 19:00 | 21.06304 | -87.17105 | 4503 ft | 224 kts | 45° |
| 2026-04-26 19:01 | 21.07398 | -87.15991 | 4238 ft | 217 kts | 46° |
| 2026-04-26 19:01 | 21.08496 | -87.14871 | 3930 ft | 214 kts | 46° |
| 2026-04-26 19:01 | 21.09558 | -87.13788 | 3654 ft | 204 kts | 46° |
| 2026-04-26 19:01 | 21.10567 | -87.12758 | 3378 ft | 196 kts | 46° |
| 2026-04-26 19:02 | 21.11534 | -87.11771 | 3120 ft | 187 kts | 47° |
| 2026-04-26 19:02 | 21.12456 | -87.10829 | 2874 ft | 180 kts | 47° |
| 2026-04-26 19:02 | 21.13351 | -87.09911 | 2640 ft | 177 kts | 47° |
| 2026-04-26 19:02 | 21.13951 | -87.09296 | 2487 ft | 177 kts | 47° |
| 2026-04-26 19:03 | 21.15070 | -87.08051 | 2245 ft | 162 kts | 61° |
| 2026-04-26 19:03 | 21.15345 | -87.06906 | 2116 ft | 159 kts | 94° |
| 2026-04-26 19:03 | 21.15005 | -87.05808 | 2007 ft | 156 kts | 121° |
| 2026-04-26 19:03 | 21.14396 | -87.04847 | 1998 ft | 156 kts | 125° |
| 2026-04-26 19:04 | 21.13772 | -87.03884 | 2008 ft | 157 kts | 124° |
| 2026-04-26 19:04 | 21.13155 | -87.02904 | 2001 ft | 157 kts | 124° |
| 2026-04-26 19:04 | 21.12549 | -87.01932 | 1999 ft | 157 kts | 124° |
| 2026-04-26 19:04 | 21.11938 | -87.00954 | 1999 ft | 157 kts | 124° |
| 2026-04-26 19:05 | 21.10724 | -86.99007 | 2002 ft | 156 kts | 124° |
| 2026-04-26 19:05 | 21.10117 | -86.98035 | 1983 ft | 157 kts | 124° |
| 2026-04-26 19:05 | 21.09510 | -86.97063 | 1781 ft | 154 kts | 124° |
| 2026-04-26 19:06 | 21.08968 | -86.96191 | 1585 ft | 132 kts | 125° |
| 2026-04-26 19:06 | 21.08467 | -86.95387 | 1388 ft | 125 kts | 125° |
| 2026-04-26 19:06 | 21.07988 | -86.94624 | 1228 ft | 122 kts | 126° |
| 2026-04-26 19:06 | 21.07515 | -86.93868 | 1088 ft | 121 kts | 125° |
| 2026-04-26 19:07 | 21.07043 | -86.93114 | 937 ft | 121 kts | 125° |
| 2026-04-26 19:07 | 21.06576 | -86.92366 | 783 ft | 120 kts | 125° |
| 2026-04-26 19:07 | 21.06115 | -86.91627 | 625 ft | 120 kts | 126° |
| 2026-04-26 19:07 | 21.05650 | -86.90883 | 468 ft | 120 kts | 125° |
| 2026-04-26 19:08 | 21.05191 | -86.90150 | 309 ft | 119 kts | 125° |
| 2026-04-26 19:08 | 21.04725 | -86.89406 | 179 ft | 122 kts | 126° |
| 2026-04-26 19:08 | 21.04200 | -86.88580 | 610 ft | 152 kts | 126° |
| 2026-04-26 19:08 | 21.03569 | -86.87567 | 1285 ft | 173 kts | 125° |
| 2026-04-26 19:09 | 21.02853 | -86.86426 | 1866 ft | 198 kts | 124° |
| 2026-04-26 19:09 | 21.02084 | -86.85191 | 2004 ft | 199 kts | 124° |
| 2026-04-26 19:09 | 21.01337 | -86.83940 | 2200 ft | 198 kts | 122° |
| 2026-04-26 19:09 | 21.00614 | -86.82676 | 2442 ft | 205 kts | 122° |
| 2026-04-26 19:10 | 20.99828 | -86.81305 | 2482 ft | 218 kts | 122° |
| 2026-04-26 19:10 | 20.99026 | -86.79908 | 2729 ft | 219 kts | 122° |
| 2026-04-26 19:10 | 20.98221 | -86.78508 | 3096 ft | 223 kts | 122° |
| 2026-04-26 19:10 | 20.97401 | -86.77084 | 3474 ft | 225 kts | 122° |
| 2026-04-26 19:11 | 20.96578 | -86.75658 | 3844 ft | 228 kts | 122° |
| 2026-04-26 19:11 | 20.95517 | -86.74388 | 3982 ft | 230 kts | 148° |
| 2026-04-26 19:11 | 20.93987 | -86.73965 | 3989 ft | 232 kts | 183° |
| 2026-04-26 19:11 | 20.92500 | -86.74607 | 3996 ft | 236 kts | 219° |
| 2026-04-26 19:12 | 20.91483 | -86.76000 | 4008 ft | 240 kts | 236° |
| 2026-04-26 19:12 | 20.90620 | -86.77531 | 4006 ft | 241 kts | 237° |
| 2026-04-26 19:12 | 20.89766 | -86.79080 | 4001 ft | 241 kts | 237° |
| 2026-04-26 19:12 | 20.88907 | -86.80644 | 4001 ft | 241 kts | 237° |
| 2026-04-26 19:13 | 20.88059 | -86.82188 | 3999 ft | 241 kts | 237° |
| 2026-04-26 19:13 | 20.87208 | -86.83739 | 4000 ft | 241 kts | 237° |
| 2026-04-26 19:13 | 20.86362 | -86.85281 | 3999 ft | 241 kts | 237° |
| 2026-04-26 19:13 | 20.85510 | -86.86834 | 3999 ft | 241 kts | 237° |
| 2026-04-26 19:14 | 20.84655 | -86.88396 | 3999 ft | 241 kts | 237° |
| 2026-04-26 19:14 | 20.83807 | -86.89941 | 3999 ft | 241 kts | 237° |
| 2026-04-26 19:14 | 20.82957 | -86.91494 | 3998 ft | 241 kts | 237° |
| 2026-04-26 19:14 | 20.82683 | -86.91996 | 3999 ft | 241 kts | 237° |
| 2026-04-26 19:15 | 20.81262 | -86.94591 | 3997 ft | 241 kts | 237° |
| 2026-04-26 19:15 | 20.80414 | -86.96139 | 3996 ft | 241 kts | 237° |
| 2026-04-26 19:15 | 20.79556 | -86.97707 | 3996 ft | 241 kts | 237° |
| 2026-04-26 19:15 | 20.78713 | -86.99265 | 3995 ft | 242 kts | 240° |
| 2026-04-26 19:16 | 20.78313 | -87.00996 | 3985 ft | 245 kts | 272° |
| 2026-04-26 19:16 | 20.78876 | -87.02711 | 3889 ft | 248 kts | 307° |
| 2026-04-26 19:16 | 20.80228 | -87.03789 | 3758 ft | 245 kts | 343° |
| 2026-04-26 19:16 | 20.81906 | -87.04095 | 3544 ft | 244 kts | 356° |
| 2026-04-26 19:17 | 20.83605 | -87.04244 | 3301 ft | 244 kts | 357° |
| 2026-04-26 19:17 | 20.85281 | -87.04385 | 3053 ft | 243 kts | 357° |
| 2026-04-26 19:17 | 20.86982 | -87.04530 | 2801 ft | 243 kts | 357° |
| 2026-04-26 19:17 | 20.88663 | -87.04672 | 2549 ft | 242 kts | 357° |
| 2026-04-26 19:18 | 20.90340 | -87.04808 | 2299 ft | 241 kts | 357° |
| 2026-04-26 19:18 | 20.92010 | -87.04939 | 2050 ft | 240 kts | 357° |
| 2026-04-26 19:18 | 20.93632 | -87.04822 | 1976 ft | 231 kts | 23° |
| 2026-04-26 19:18 | 20.94916 | -87.03951 | 1914 ft | 216 kts | 40° |
| 2026-04-26 19:19 | 20.96145 | -87.02985 | 1564 ft | 220 kts | 35° |
| 2026-04-26 19:19 | 20.97439 | -87.02112 | 1306 ft | 213 kts | 33° |
| 2026-04-26 19:19 | 20.98685 | -87.01272 | 1284 ft | 214 kts | 34° |
| 2026-04-26 19:19 | 20.99943 | -87.00411 | 1286 ft | 214 kts | 34° |
| 2026-04-26 19:20 | 21.01219 | -86.99538 | 1291 ft | 215 kts | 34° |
| 2026-04-26 19:20 | 21.02053 | -86.98967 | 1292 ft | 215 kts | 34° |
| 2026-04-26 19:20 | 21.03715 | -86.97829 | 1312 ft | 204 kts | 34° |
| 2026-04-26 19:20 | 21.04858 | -86.97047 | 1434 ft | 193 kts | 34° |
| 2026-04-26 19:21 | 21.06000 | -86.96261 | 1323 ft | 192 kts | 34° |
| 2026-04-26 19:21 | 21.07075 | -86.95525 | 1321 ft | 180 kts | 34° |
| 2026-04-26 19:21 | 21.08126 | -86.94803 | 1299 ft | 175 kts | 34° |
| 2026-04-26 19:21 | 21.09098 | -86.94048 | 1278 ft | 171 kts | 49° |
| 2026-04-26 19:22 | 21.09423 | -86.92978 | 1194 ft | 142 kts | 103° |
| 2026-04-26 19:22 | 21.08860 | -86.92210 | 1161 ft | 133 kts | 155° |
| 2026-04-26 19:22 | 21.07970 | -86.92050 | 1072 ft | 129 kts | 175° |
| 2026-04-26 19:22 | 21.07114 | -86.91815 | 899 ft | 127 kts | 154° |
| 2026-04-26 19:23 | 21.06376 | -86.91306 | 765 ft | 125 kts | 146° |
| 2026-04-26 19:23 | 21.05706 | -86.90715 | 577 ft | 124 kts | 137° |
| 2026-04-26 19:23 | 21.05142 | -86.90028 | 316 ft | 122 kts | 130° |
| 2026-04-26 19:23 | 21.04654 | -86.89284 | 134 ft | 122 kts | 127° |
| 2026-04-26 19:24 | 21.04192 | -86.88551 | 30 ft | 106 kts | 124° |
| 2026-04-26 19:24 | 21.03871 | -86.88042 | 29 ft | 53 kts | 123° |
| 2026-04-26 19:24 | 21.03629 | -86.87630 | 29 ft | 19 kts | 112° |
| 2026-04-26 19:25 | 21.03599 | -86.87511 | 29 ft | 11 kts | 95° |
| 2026-04-26 19:25 | 21.03598 | -86.87485 | 29 ft | 8 kts | 93° |
| 2026-04-26 19:25 | 21.03591 | -86.87363 | 29 ft | 12 kts | 98° |
| 2026-04-26 19:25 | 21.03576 | -86.87298 | 29 ft | 9 kts | 108° |
| 2026-04-26 19:26 | 21.03548 | -86.87218 | 29 ft | 13 kts | 116° |
| 2026-04-26 19:26 | 21.03499 | -86.87134 | 29 ft | 8 kts | 123° |
| 2026-04-26 19:26 | 21.03461 | -86.87075 | 29 ft | 11 kts | 124° |
| 2026-04-26 19:26 | 21.03412 | -86.86999 | 29 ft | 12 kts | 123° |
| 2026-04-26 19:27 | 21.03369 | -86.86926 | 29 ft | 10 kts | 122° |
| 2026-04-26 19:27 | 21.03324 | -86.86854 | 29 ft | 13 kts | 126° |
| 2026-04-26 19:27 | 21.03287 | -86.86799 | 29 ft | 6 kts | 125° |
| 2026-04-26 19:27 | 21.03253 | -86.86745 | 29 ft | 10 kts | 123° |
| 2026-04-26 19:28 | 21.03207 | -86.86671 | 29 ft | 13 kts | 124° |
| 2026-04-26 19:28 | 21.03165 | -86.86603 | 29 ft | 7 kts | 124° |
| 2026-04-26 19:28 | 21.03170 | -86.86544 | 29 ft | 10 kts | 39° |
| 2026-04-26 19:28 | 21.03239 | -86.86494 | 29 ft | 9 kts | 33° |
| 2026-04-26 19:29 | 21.03288 | -86.86457 | 29 ft | 9 kts | 34° |
| 2026-04-26 19:29 | 21.03340 | -86.86420 | 29 ft | 10 kts | 34° |
| 2026-04-26 19:29 | 21.03396 | -86.86378 | 29 ft | 8 kts | 32° |
| 2026-04-26 19:29 | 21.03437 | -86.86397 | 29 ft | 8 kts | 300° |
| 2026-04-26 19:30 | 21.03436 | -86.86435 | 29 ft | 5 kts | 213° |
| 2026-04-26 19:30 | 21.03395 | -86.86442 | 29 ft | 5 kts | 142° |
| 2026-04-26 19:30 | 21.03383 | -86.86425 | 29 ft | 0 kts | 121° |
| 2026-04-26 19:30 | 21.03383 | -86.86424 | 29 ft | 0 kts | 123° |